sensor_id;sensor_type;location;lat;lon;timestamp;P1;durP1;ratioP1;P2;durP2;ratioP2
12363;SDS011;6246;50.826;4.712;2024-02-23T00:01:15;43.93;;;35.40;;
12363;SDS011;6246;50.826;4.712;2024-02-23T00:03:41;49.73;;;39.77;;
12363;SDS011;6246;50.826;4.712;2024-02-23T00:06:07;52.27;;;42.33;;
12363;SDS011;6246;50.826;4.712;2024-02-23T00:08:34;53.37;;;43.90;;
12363;SDS011;6246;50.826;4.712;2024-02-23T00:11:00;51.63;;;43.57;;
12363;SDS011;6246;50.826;4.712;2024-02-23T00:13:25;50.93;;;41.70;;
12363;SDS011;6246;50.826;4.712;2024-02-23T00:15:51;51.40;;;42.83;;
12363;SDS011;6246;50.826;4.712;2024-02-23T00:18:17;50.03;;;40.93;;
12363;SDS011;6246;50.826;4.712;2024-02-23T00:20:43;47.27;;;38.87;;
12363;SDS011;6246;50.826;4.712;2024-02-23T00:23:10;52.17;;;40.97;;
12363;SDS011;6246;50.826;4.712;2024-02-23T00:25:36;47.83;;;39.90;;
12363;SDS011;6246;50.826;4.712;2024-02-23T00:28:02;46.33;;;38.40;;
12363;SDS011;6246;50.826;4.712;2024-02-23T00:30:28;50.57;;;40.43;;
12363;SDS011;6246;50.826;4.712;2024-02-23T00:32:54;44.80;;;36.73;;
12363;SDS011;6246;50.826;4.712;2024-02-23T00:35:20;45.40;;;36.70;;
12363;SDS011;6246;50.826;4.712;2024-02-23T00:37:46;43.00;;;35.07;;
12363;SDS011;6246;50.826;4.712;2024-02-23T00:40:12;38.40;;;32.63;;
12363;SDS011;6246;50.826;4.712;2024-02-23T00:42:38;41.37;;;33.20;;
12363;SDS011;6246;50.826;4.712;2024-02-23T00:45:04;39.90;;;32.37;;
12363;SDS011;6246;50.826;4.712;2024-02-23T00:47:31;36.37;;;31.40;;
12363;SDS011;6246;50.826;4.712;2024-02-23T00:49:57;39.27;;;32.10;;
12363;SDS011;6246;50.826;4.712;2024-02-23T00:52:23;36.17;;;30.23;;
12363;SDS011;6246;50.826;4.712;2024-02-23T00:54:49;36.27;;;30.00;;
12363;SDS011;6246;50.826;4.712;2024-02-23T00:57:15;34.43;;;28.20;;
12363;SDS011;6246;50.826;4.712;2024-02-23T00:59:41;32.50;;;27.90;;
12363;SDS011;6246;50.826;4.712;2024-02-23T01:02:07;31.53;;;25.10;;
12363;SDS011;6246;50.826;4.712;2024-02-23T01:04:34;33.27;;;26.63;;
12363;SDS011;6246;50.826;4.712;2024-02-23T01:07:00;31.30;;;26.70;;
12363;SDS011;6246;50.826;4.712;2024-02-23T01:09:26;28.60;;;24.30;;
12363;SDS011;6246;50.826;4.712;2024-02-23T01:11:52;30.17;;;24.73;;
12363;SDS011;6246;50.826;4.712;2024-02-23T01:14:18;28.63;;;23.10;;
12363;SDS011;6246;50.826;4.712;2024-02-23T01:16:44;26.23;;;22.10;;
12363;SDS011;6246;50.826;4.712;2024-02-23T01:19:10;28.27;;;22.27;;
12363;SDS011;6246;50.826;4.712;2024-02-23T01:21:36;28.57;;;22.93;;
12363;SDS011;6246;50.826;4.712;2024-02-23T01:24:03;28.27;;;23.30;;
12363;SDS011;6246;50.826;4.712;2024-02-23T01:26:29;27.47;;;22.80;;
12363;SDS011;6246;50.826;4.712;2024-02-23T01:28:55;27.17;;;21.57;;
12363;SDS011;6246;50.826;4.712;2024-02-23T01:31:21;25.43;;;20.57;;
12363;SDS011;6246;50.826;4.712;2024-02-23T01:33:47;25.30;;;20.23;;
12363;SDS011;6246;50.826;4.712;2024-02-23T01:36:15;24.00;;;19.30;;
12363;SDS011;6246;50.826;4.712;2024-02-23T01:38:41;24.83;;;19.73;;
12363;SDS011;6246;50.826;4.712;2024-02-23T01:41:08;25.70;;;20.57;;
12363;SDS011;6246;50.826;4.712;2024-02-23T01:43:34;25.50;;;19.63;;
12363;SDS011;6246;50.826;4.712;2024-02-23T01:46:00;20.97;;;17.63;;
12363;SDS011;6246;50.826;4.712;2024-02-23T01:48:26;19.30;;;15.60;;
12363;SDS011;6246;50.826;4.712;2024-02-23T01:50:52;22.03;;;18.63;;
12363;SDS011;6246;50.826;4.712;2024-02-23T01:53:19;20.57;;;16.63;;
12363;SDS011;6246;50.826;4.712;2024-02-23T01:55:46;21.80;;;17.23;;
12363;SDS011;6246;50.826;4.712;2024-02-23T01:58:13;18.63;;;15.30;;
12363;SDS011;6246;50.826;4.712;2024-02-23T02:00:39;21.47;;;16.93;;
12363;SDS011;6246;50.826;4.712;2024-02-23T02:03:05;21.83;;;16.90;;
12363;SDS011;6246;50.826;4.712;2024-02-23T02:05:31;17.17;;;13.87;;
12363;SDS011;6246;50.826;4.712;2024-02-23T02:07:57;15.83;;;13.00;;
12363;SDS011;6246;50.826;4.712;2024-02-23T02:10:26;15.57;;;12.47;;
12363;SDS011;6246;50.826;4.712;2024-02-23T02:12:52;18.13;;;14.33;;
12363;SDS011;6246;50.826;4.712;2024-02-23T02:15:18;17.23;;;13.93;;
12363;SDS011;6246;50.826;4.712;2024-02-23T02:17:46;17.30;;;13.33;;
12363;SDS011;6246;50.826;4.712;2024-02-23T02:20:13;17.13;;;13.27;;
12363;SDS011;6246;50.826;4.712;2024-02-23T02:22:39;14.53;;;11.00;;
12363;SDS011;6246;50.826;4.712;2024-02-23T02:25:05;15.43;;;11.37;;
12363;SDS011;6246;50.826;4.712;2024-02-23T02:27:32;15.27;;;11.63;;
12363;SDS011;6246;50.826;4.712;2024-02-23T02:29:58;14.03;;;11.03;;
12363;SDS011;6246;50.826;4.712;2024-02-23T02:32:24;14.07;;;10.67;;
12363;SDS011;6246;50.826;4.712;2024-02-23T02:34:50;13.10;;;10.20;;
12363;SDS011;6246;50.826;4.712;2024-02-23T02:37:16;15.57;;;11.23;;
12363;SDS011;6246;50.826;4.712;2024-02-23T02:39:42;13.87;;;10.23;;
12363;SDS011;6246;50.826;4.712;2024-02-23T02:42:08;12.87;;;10.03;;
12363;SDS011;6246;50.826;4.712;2024-02-23T02:44:34;12.13;;;9.70;;
12363;SDS011;6246;50.826;4.712;2024-02-23T02:47:00;12.93;;;10.03;;
12363;SDS011;6246;50.826;4.712;2024-02-23T02:49:26;14.37;;;10.47;;
12363;SDS011;6246;50.826;4.712;2024-02-23T02:51:52;12.40;;;8.70;;
12363;SDS011;6246;50.826;4.712;2024-02-23T02:54:18;11.30;;;8.80;;
12363;SDS011;6246;50.826;4.712;2024-02-23T02:56:44;12.13;;;9.10;;
12363;SDS011;6246;50.826;4.712;2024-02-23T02:59:11;9.77;;;8.03;;
12363;SDS011;6246;50.826;4.712;2024-02-23T03:01:37;8.97;;;7.40;;
12363;SDS011;6246;50.826;4.712;2024-02-23T03:04:03;10.90;;;8.37;;
12363;SDS011;6246;50.826;4.712;2024-02-23T03:06:29;10.23;;;7.67;;
12363;SDS011;6246;50.826;4.712;2024-02-23T03:08:55;9.10;;;7.47;;
12363;SDS011;6246;50.826;4.712;2024-02-23T03:11:21;10.80;;;7.67;;
12363;SDS011;6246;50.826;4.712;2024-02-23T03:13:47;10.00;;;7.57;;
12363;SDS011;6246;50.826;4.712;2024-02-23T03:16:17;8.77;;;6.77;;
12363;SDS011;6246;50.826;4.712;2024-02-23T03:18:43;8.87;;;6.70;;
12363;SDS011;6246;50.826;4.712;2024-02-23T03:21:09;8.17;;;6.60;;
12363;SDS011;6246;50.826;4.712;2024-02-23T03:23:36;8.67;;;6.80;;
12363;SDS011;6246;50.826;4.712;2024-02-23T03:26:02;9.73;;;7.20;;
12363;SDS011;6246;50.826;4.712;2024-02-23T03:28:28;8.80;;;6.60;;
12363;SDS011;6246;50.826;4.712;2024-02-23T03:30:54;9.17;;;6.33;;
12363;SDS011;6246;50.826;4.712;2024-02-23T03:33:20;8.13;;;6.27;;
12363;SDS011;6246;50.826;4.712;2024-02-23T03:35:46;7.93;;;6.30;;
12363;SDS011;6246;50.826;4.712;2024-02-23T03:38:12;8.20;;;6.30;;
12363;SDS011;6246;50.826;4.712;2024-02-23T03:40:38;7.87;;;6.30;;
12363;SDS011;6246;50.826;4.712;2024-02-23T03:43:04;7.63;;;5.83;;
12363;SDS011;6246;50.826;4.712;2024-02-23T03:45:31;7.83;;;5.80;;
12363;SDS011;6246;50.826;4.712;2024-02-23T03:47:57;7.67;;;5.70;;
12363;SDS011;6246;50.826;4.712;2024-02-23T03:50:23;7.13;;;5.23;;
12363;SDS011;6246;50.826;4.712;2024-02-23T03:52:49;6.90;;;5.40;;
12363;SDS011;6246;50.826;4.712;2024-02-23T03:55:15;7.00;;;5.17;;
12363;SDS011;6246;50.826;4.712;2024-02-23T03:57:41;6.17;;;5.10;;
12363;SDS011;6246;50.826;4.712;2024-02-23T04:00:07;6.33;;;5.27;;
12363;SDS011;6246;50.826;4.712;2024-02-23T04:02:34;5.17;;;4.67;;
12363;SDS011;6246;50.826;4.712;2024-02-23T04:05:00;7.10;;;5.30;;
12363;SDS011;6246;50.826;4.712;2024-02-23T04:07:26;6.03;;;4.87;;
12363;SDS011;6246;50.826;4.712;2024-02-23T04:09:52;6.73;;;4.93;;
12363;SDS011;6246;50.826;4.712;2024-02-23T04:12:20;7.87;;;5.17;;
12363;SDS011;6246;50.826;4.712;2024-02-23T04:14:46;6.17;;;4.30;;
12363;SDS011;6246;50.826;4.712;2024-02-23T04:17:12;6.03;;;4.70;;
12363;SDS011;6246;50.826;4.712;2024-02-23T04:19:38;5.47;;;4.43;;
12363;SDS011;6246;50.826;4.712;2024-02-23T04:22:05;4.90;;;3.93;;
12363;SDS011;6246;50.826;4.712;2024-02-23T04:24:34;6.77;;;4.50;;
12363;SDS011;6246;50.826;4.712;2024-02-23T04:27:01;4.27;;;3.80;;
12363;SDS011;6246;50.826;4.712;2024-02-23T04:29:27;4.67;;;4.03;;
12363;SDS011;6246;50.826;4.712;2024-02-23T04:31:53;5.23;;;3.80;;
12363;SDS011;6246;50.826;4.712;2024-02-23T04:34:19;4.47;;;4.00;;
12363;SDS011;6246;50.826;4.712;2024-02-23T04:36:45;4.60;;;4.00;;
12363;SDS011;6246;50.826;4.712;2024-02-23T04:39:11;6.07;;;4.30;;
12363;SDS011;6246;50.826;4.712;2024-02-23T04:41:37;4.60;;;3.73;;
12363;SDS011;6246;50.826;4.712;2024-02-23T04:44:03;4.10;;;3.63;;
12363;SDS011;6246;50.826;4.712;2024-02-23T04:46:30;4.13;;;3.40;;
12363;SDS011;6246;50.826;4.712;2024-02-23T04:48:56;4.20;;;3.50;;
12363;SDS011;6246;50.826;4.712;2024-02-23T04:51:22;5.17;;;3.40;;
12363;SDS011;6246;50.826;4.712;2024-02-23T04:53:48;3.60;;;3.30;;
12363;SDS011;6246;50.826;4.712;2024-02-23T04:56:14;3.70;;;3.33;;
12363;SDS011;6246;50.826;4.712;2024-02-23T04:58:40;3.53;;;3.20;;
12363;SDS011;6246;50.826;4.712;2024-02-23T05:01:07;3.93;;;3.17;;
12363;SDS011;6246;50.826;4.712;2024-02-23T05:03:34;3.23;;;2.83;;
12363;SDS011;6246;50.826;4.712;2024-02-23T05:06:01;3.60;;;3.20;;
12363;SDS011;6246;50.826;4.712;2024-02-23T05:08:27;3.87;;;3.40;;
12363;SDS011;6246;50.826;4.712;2024-02-23T05:10:53;3.10;;;2.77;;
12363;SDS011;6246;50.826;4.712;2024-02-23T05:13:19;3.40;;;2.67;;
12363;SDS011;6246;50.826;4.712;2024-02-23T05:15:45;4.93;;;3.13;;
12363;SDS011;6246;50.826;4.712;2024-02-23T05:18:11;3.23;;;2.77;;
12363;SDS011;6246;50.826;4.712;2024-02-23T05:20:37;5.27;;;3.10;;
12363;SDS011;6246;50.826;4.712;2024-02-23T05:23:03;3.40;;;3.07;;
12363;SDS011;6246;50.826;4.712;2024-02-23T05:25:29;3.53;;;2.90;;
12363;SDS011;6246;50.826;4.712;2024-02-23T05:27:55;3.97;;;3.07;;
12363;SDS011;6246;50.826;4.712;2024-02-23T05:30:21;3.23;;;2.63;;
12363;SDS011;6246;50.826;4.712;2024-02-23T05:32:47;4.07;;;2.83;;
12363;SDS011;6246;50.826;4.712;2024-02-23T05:35:13;3.27;;;2.63;;
12363;SDS011;6246;50.826;4.712;2024-02-23T05:37:41;3.67;;;2.53;;
12363;SDS011;6246;50.826;4.712;2024-02-23T05:40:07;3.30;;;2.80;;
12363;SDS011;6246;50.826;4.712;2024-02-23T05:42:36;4.70;;;2.50;;
12363;SDS011;6246;50.826;4.712;2024-02-23T05:45:03;2.90;;;2.33;;
12363;SDS011;6246;50.826;4.712;2024-02-23T05:47:34;2.50;;;2.30;;
12363;SDS011;6246;50.826;4.712;2024-02-23T05:50:01;3.10;;;2.10;;
12363;SDS011;6246;50.826;4.712;2024-02-23T05:52:27;3.93;;;2.50;;
12363;SDS011;6246;50.826;4.712;2024-02-23T05:54:53;2.63;;;2.43;;
12363;SDS011;6246;50.826;4.712;2024-02-23T05:57:21;3.33;;;2.20;;
12363;SDS011;6246;50.826;4.712;2024-02-23T05:59:47;3.63;;;2.23;;
12363;SDS011;6246;50.826;4.712;2024-02-23T06:02:13;2.40;;;2.10;;
12363;SDS011;6246;50.826;4.712;2024-02-23T06:04:41;3.30;;;2.40;;
12363;SDS011;6246;50.826;4.712;2024-02-23T06:07:08;3.40;;;2.30;;
12363;SDS011;6246;50.826;4.712;2024-02-23T06:09:34;2.90;;;2.10;;
12363;SDS011;6246;50.826;4.712;2024-02-23T06:12:00;2.60;;;2.40;;
12363;SDS011;6246;50.826;4.712;2024-02-23T06:14:26;3.50;;;2.20;;
12363;SDS011;6246;50.826;4.712;2024-02-23T06:16:52;3.00;;;2.07;;
12363;SDS011;6246;50.826;4.712;2024-02-23T06:19:18;2.60;;;1.70;;
12363;SDS011;6246;50.826;4.712;2024-02-23T06:21:47;1.80;;;1.70;;
12363;SDS011;6246;50.826;4.712;2024-02-23T06:24:14;2.27;;;1.77;;
12363;SDS011;6246;50.826;4.712;2024-02-23T06:26:40;1.80;;;1.63;;
12363;SDS011;6246;50.826;4.712;2024-02-23T06:29:06;3.50;;;2.07;;
12363;SDS011;6246;50.826;4.712;2024-02-23T06:31:36;3.30;;;2.03;;
12363;SDS011;6246;50.826;4.712;2024-02-23T06:34:02;2.77;;;2.07;;
12363;SDS011;6246;50.826;4.712;2024-02-23T06:36:28;4.33;;;2.17;;
12363;SDS011;6246;50.826;4.712;2024-02-23T06:38:54;4.00;;;2.23;;
12363;SDS011;6246;50.826;4.712;2024-02-23T06:41:20;4.10;;;2.00;;
12363;SDS011;6246;50.826;4.712;2024-02-23T06:43:46;1.70;;;1.60;;
12363;SDS011;6246;50.826;4.712;2024-02-23T06:46:12;3.43;;;1.63;;
12363;SDS011;6246;50.826;4.712;2024-02-23T06:48:38;2.77;;;1.90;;
12363;SDS011;6246;50.826;4.712;2024-02-23T06:51:04;2.63;;;1.53;;
12363;SDS011;6246;50.826;4.712;2024-02-23T06:53:34;2.57;;;1.60;;
12363;SDS011;6246;50.826;4.712;2024-02-23T06:56:00;2.33;;;1.27;;
12363;SDS011;6246;50.826;4.712;2024-02-23T06:58:27;2.60;;;2.00;;
12363;SDS011;6246;50.826;4.712;2024-02-23T07:00:53;3.23;;;1.63;;
12363;SDS011;6246;50.826;4.712;2024-02-23T07:03:19;2.33;;;1.27;;
12363;SDS011;6246;50.826;4.712;2024-02-23T07:05:45;1.97;;;1.73;;
12363;SDS011;6246;50.826;4.712;2024-02-23T07:08:12;2.90;;;1.87;;
12363;SDS011;6246;50.826;4.712;2024-02-23T07:10:38;2.07;;;1.30;;
12363;SDS011;6246;50.826;4.712;2024-02-23T07:13:05;2.67;;;1.70;;
12363;SDS011;6246;50.826;4.712;2024-02-23T07:15:32;2.63;;;1.70;;
12363;SDS011;6246;50.826;4.712;2024-02-23T07:17:58;2.10;;;1.47;;
12363;SDS011;6246;50.826;4.712;2024-02-23T07:20:24;2.63;;;1.63;;
12363;SDS011;6246;50.826;4.712;2024-02-23T07:22:50;2.13;;;1.70;;
12363;SDS011;6246;50.826;4.712;2024-02-23T07:25:17;1.87;;;1.40;;
12363;SDS011;6246;50.826;4.712;2024-02-23T07:27:43;2.73;;;1.57;;
12363;SDS011;6246;50.826;4.712;2024-02-23T07:30:10;2.00;;;1.40;;
12363;SDS011;6246;50.826;4.712;2024-02-23T07:32:36;2.40;;;1.60;;
12363;SDS011;6246;50.826;4.712;2024-02-23T07:35:03;3.67;;;1.30;;
12363;SDS011;6246;50.826;4.712;2024-02-23T07:37:29;2.90;;;1.33;;
12363;SDS011;6246;50.826;4.712;2024-02-23T07:39:55;1.93;;;1.40;;
12363;SDS011;6246;50.826;4.712;2024-02-23T07:42:21;2.07;;;1.50;;
12363;SDS011;6246;50.826;4.712;2024-02-23T07:44:47;2.60;;;1.60;;
12363;SDS011;6246;50.826;4.712;2024-02-23T07:47:13;2.47;;;1.67;;
12363;SDS011;6246;50.826;4.712;2024-02-23T07:49:39;2.53;;;1.27;;
12363;SDS011;6246;50.826;4.712;2024-02-23T07:52:08;3.07;;;1.47;;
12363;SDS011;6246;50.826;4.712;2024-02-23T07:54:34;1.63;;;1.17;;
12363;SDS011;6246;50.826;4.712;2024-02-23T07:57:00;1.33;;;1.10;;
12363;SDS011;6246;50.826;4.712;2024-02-23T07:59:26;2.30;;;1.33;;
12363;SDS011;6246;50.826;4.712;2024-02-23T08:01:53;3.13;;;1.90;;
12363;SDS011;6246;50.826;4.712;2024-02-23T08:04:20;2.67;;;1.10;;
12363;SDS011;6246;50.826;4.712;2024-02-23T08:06:47;1.90;;;1.30;;
12363;SDS011;6246;50.826;4.712;2024-02-23T08:09:13;3.53;;;1.60;;
12363;SDS011;6246;50.826;4.712;2024-02-23T08:11:39;2.00;;;1.57;;
12363;SDS011;6246;50.826;4.712;2024-02-23T08:14:05;3.20;;;1.60;;
12363;SDS011;6246;50.826;4.712;2024-02-23T08:16:31;5.53;;;1.30;;
12363;SDS011;6246;50.826;4.712;2024-02-23T08:18:57;3.83;;;1.97;;
12363;SDS011;6246;50.826;4.712;2024-02-23T08:21:24;3.63;;;1.63;;
12363;SDS011;6246;50.826;4.712;2024-02-23T08:23:51;3.47;;;1.50;;
12363;SDS011;6246;50.826;4.712;2024-02-23T08:26:17;3.30;;;1.60;;
12363;SDS011;6246;50.826;4.712;2024-02-23T08:28:43;5.00;;;1.73;;
12363;SDS011;6246;50.826;4.712;2024-02-23T08:31:09;5.37;;;1.20;;
12363;SDS011;6246;50.826;4.712;2024-02-23T08:33:35;4.50;;;1.60;;
12363;SDS011;6246;50.826;4.712;2024-02-23T08:36:01;3.33;;;1.13;;
12363;SDS011;6246;50.826;4.712;2024-02-23T08:38:30;2.50;;;1.50;;
12363;SDS011;6246;50.826;4.712;2024-02-23T08:40:56;4.17;;;1.47;;
12363;SDS011;6246;50.826;4.712;2024-02-23T08:43:23;3.37;;;1.37;;
12363;SDS011;6246;50.826;4.712;2024-02-23T08:45:49;3.70;;;1.80;;
12363;SDS011;6246;50.826;4.712;2024-02-23T08:48:16;4.10;;;1.77;;
12363;SDS011;6246;50.826;4.712;2024-02-23T08:50:43;3.23;;;1.60;;
12363;SDS011;6246;50.826;4.712;2024-02-23T08:53:09;3.47;;;1.70;;
12363;SDS011;6246;50.826;4.712;2024-02-23T08:55:35;2.43;;;1.40;;
12363;SDS011;6246;50.826;4.712;2024-02-23T08:58:01;9.37;;;5.30;;
12363;SDS011;6246;50.826;4.712;2024-02-23T09:00:27;9.93;;;7.77;;
12363;SDS011;6246;50.826;4.712;2024-02-23T09:02:53;14.43;;;7.73;;
12363;SDS011;6246;50.826;4.712;2024-02-23T09:05:19;16.27;;;10.17;;
12363;SDS011;6246;50.826;4.712;2024-02-23T09:07:46;19.17;;;13.97;;
12363;SDS011;6246;50.826;4.712;2024-02-23T09:10:12;26.30;;;20.77;;
12363;SDS011;6246;50.826;4.712;2024-02-23T09:12:38;26.93;;;21.27;;
12363;SDS011;6246;50.826;4.712;2024-02-23T09:15:04;20.90;;;16.03;;
12363;SDS011;6246;50.826;4.712;2024-02-23T09:17:31;24.00;;;17.53;;
12363;SDS011;6246;50.826;4.712;2024-02-23T09:19:57;23.40;;;18.07;;
12363;SDS011;6246;50.826;4.712;2024-02-23T09:22:23;29.63;;;22.07;;
12363;SDS011;6246;50.826;4.712;2024-02-23T09:24:49;37.93;;;28.77;;
12363;SDS011;6246;50.826;4.712;2024-02-23T09:27:15;29.87;;;23.37;;
12363;SDS011;6246;50.826;4.712;2024-02-23T09:29:41;25.97;;;20.40;;
12363;SDS011;6246;50.826;4.712;2024-02-23T09:32:07;27.90;;;18.83;;
12363;SDS011;6246;50.826;4.712;2024-02-23T09:34:34;27.70;;;19.13;;
12363;SDS011;6246;50.826;4.712;2024-02-23T09:37:00;28.77;;;19.73;;
12363;SDS011;6246;50.826;4.712;2024-02-23T09:39:26;32.50;;;25.23;;
12363;SDS011;6246;50.826;4.712;2024-02-23T09:41:55;39.30;;;25.23;;
12363;SDS011;6246;50.826;4.712;2024-02-23T09:44:26;30.73;;;21.17;;
12363;SDS011;6246;50.826;4.712;2024-02-23T09:46:52;35.07;;;21.17;;
12363;SDS011;6246;50.826;4.712;2024-02-23T09:49:18;27.83;;;20.17;;
12363;SDS011;6246;50.826;4.712;2024-02-23T09:51:44;30.77;;;20.77;;
12363;SDS011;6246;50.826;4.712;2024-02-23T09:54:10;28.40;;;19.67;;
12363;SDS011;6246;50.826;4.712;2024-02-23T09:56:36;24.63;;;17.77;;
12363;SDS011;6246;50.826;4.712;2024-02-23T09:59:03;34.60;;;19.03;;
12363;SDS011;6246;50.826;4.712;2024-02-23T10:01:30;24.17;;;17.30;;
12363;SDS011;6246;50.826;4.712;2024-02-23T10:03:58;27.03;;;17.50;;
12363;SDS011;6246;50.826;4.712;2024-02-23T10:06:24;23.90;;;17.77;;
12363;SDS011;6246;50.826;4.712;2024-02-23T10:08:50;23.87;;;17.73;;
12363;SDS011;6246;50.826;4.712;2024-02-23T10:11:19;26.17;;;17.70;;
12363;SDS011;6246;50.826;4.712;2024-02-23T10:13:46;23.47;;;16.97;;
12363;SDS011;6246;50.826;4.712;2024-02-23T10:16:14;24.83;;;17.87;;
12363;SDS011;6246;50.826;4.712;2024-02-23T10:18:41;25.73;;;18.10;;
12363;SDS011;6246;50.826;4.712;2024-02-23T10:21:07;22.60;;;16.80;;
12363;SDS011;6246;50.826;4.712;2024-02-23T10:23:32;23.10;;;16.73;;
12363;SDS011;6246;50.826;4.712;2024-02-23T10:25:58;27.37;;;17.03;;
12363;SDS011;6246;50.826;4.712;2024-02-23T10:28:24;21.63;;;16.70;;
12363;SDS011;6246;50.826;4.712;2024-02-23T10:30:50;22.73;;;15.80;;
12363;SDS011;6246;50.826;4.712;2024-02-23T10:33:18;22.17;;;16.27;;
12363;SDS011;6246;50.826;4.712;2024-02-23T10:35:46;20.00;;;14.87;;
12363;SDS011;6246;50.826;4.712;2024-02-23T10:38:13;21.23;;;15.40;;
12363;SDS011;6246;50.826;4.712;2024-02-23T10:40:41;20.87;;;15.43;;
12363;SDS011;6246;50.826;4.712;2024-02-23T10:43:12;19.93;;;14.87;;
12363;SDS011;6246;50.826;4.712;2024-02-23T10:45:38;21.37;;;14.97;;
12363;SDS011;6246;50.826;4.712;2024-02-23T10:48:06;19.77;;;13.97;;
12363;SDS011;6246;50.826;4.712;2024-02-23T10:50:32;19.60;;;13.93;;
12363;SDS011;6246;50.826;4.712;2024-02-23T10:52:59;18.47;;;13.83;;
12363;SDS011;6246;50.826;4.712;2024-02-23T10:55:26;19.70;;;12.83;;
12363;SDS011;6246;50.826;4.712;2024-02-23T10:57:53;15.17;;;12.10;;
12363;SDS011;6246;50.826;4.712;2024-02-23T11:00:21;15.50;;;11.63;;
12363;SDS011;6246;50.826;4.712;2024-02-23T11:02:50;16.37;;;12.00;;
12363;SDS011;6246;50.826;4.712;2024-02-23T11:05:17;15.70;;;11.80;;
12363;SDS011;6246;50.826;4.712;2024-02-23T11:07:47;15.93;;;10.93;;
12363;SDS011;6246;50.826;4.712;2024-02-23T11:10:16;14.40;;;10.73;;
12363;SDS011;6246;50.826;4.712;2024-02-23T11:12:43;18.00;;;12.13;;
12363;SDS011;6246;50.826;4.712;2024-02-23T11:15:09;15.63;;;11.00;;
12363;SDS011;6246;50.826;4.712;2024-02-23T11:17:36;16.87;;;11.30;;
12363;SDS011;6246;50.826;4.712;2024-02-23T11:20:03;13.83;;;10.50;;
12363;SDS011;6246;50.826;4.712;2024-02-23T11:22:30;12.93;;;9.30;;
12363;SDS011;6246;50.826;4.712;2024-02-23T11:25:00;14.53;;;10.17;;
12363;SDS011;6246;50.826;4.712;2024-02-23T11:27:29;12.03;;;9.47;;
12363;SDS011;6246;50.826;4.712;2024-02-23T11:30:05;11.57;;;9.20;;
12363;SDS011;6246;50.826;4.712;2024-02-23T11:32:43;12.63;;;9.50;;
12363;SDS011;6246;50.826;4.712;2024-02-23T11:35:11;13.67;;;9.67;;
12363;SDS011;6246;50.826;4.712;2024-02-23T11:38:11;14.10;;;9.37;;
12363;SDS011;6246;50.826;4.712;2024-02-23T11:40:31;11.23;;;9.10;;
12363;SDS011;6246;50.826;4.712;2024-02-23T11:42:58;14.27;;;9.43;;
12363;SDS011;6246;50.826;4.712;2024-02-23T11:45:28;12.30;;;8.57;;
12363;SDS011;6246;50.826;4.712;2024-02-23T11:47:54;13.13;;;9.40;;
12363;SDS011;6246;50.826;4.712;2024-02-23T11:50:20;13.37;;;9.33;;
12363;SDS011;6246;50.826;4.712;2024-02-23T11:52:46;12.17;;;8.73;;
12363;SDS011;6246;50.826;4.712;2024-02-23T11:55:12;13.47;;;8.50;;
12363;SDS011;6246;50.826;4.712;2024-02-23T11:57:39;11.23;;;8.13;;
12363;SDS011;6246;50.826;4.712;2024-02-23T12:00:06;11.93;;;8.07;;
12363;SDS011;6246;50.826;4.712;2024-02-23T12:02:34;10.63;;;7.63;;
12363;SDS011;6246;50.826;4.712;2024-02-23T12:05:01;10.77;;;7.77;;
12363;SDS011;6246;50.826;4.712;2024-02-23T12:07:28;10.80;;;7.83;;
12363;SDS011;6246;50.826;4.712;2024-02-23T12:09:55;9.30;;;7.03;;
12363;SDS011;6246;50.826;4.712;2024-02-23T12:12:22;9.80;;;7.23;;
12363;SDS011;6246;50.826;4.712;2024-02-23T12:14:48;9.33;;;6.60;;
12363;SDS011;6246;50.826;4.712;2024-02-23T12:17:14;9.87;;;6.50;;
12363;SDS011;6246;50.826;4.712;2024-02-23T12:19:40;9.70;;;6.70;;
12363;SDS011;6246;50.826;4.712;2024-02-23T12:22:06;9.17;;;7.00;;
12363;SDS011;6246;50.826;4.712;2024-02-23T12:24:32;9.70;;;6.47;;
12363;SDS011;6246;50.826;4.712;2024-02-23T12:26:58;8.43;;;6.60;;
12363;SDS011;6246;50.826;4.712;2024-02-23T12:29:24;9.37;;;6.00;;
12363;SDS011;6246;50.826;4.712;2024-02-23T12:31:50;8.87;;;6.80;;
12363;SDS011;6246;50.826;4.712;2024-02-23T12:34:17;8.10;;;5.90;;
12363;SDS011;6246;50.826;4.712;2024-02-23T12:36:45;9.93;;;6.17;;
12363;SDS011;6246;50.826;4.712;2024-02-23T12:39:11;8.10;;;6.20;;
12363;SDS011;6246;50.826;4.712;2024-02-23T12:41:37;8.73;;;5.90;;
12363;SDS011;6246;50.826;4.712;2024-02-23T12:44:03;7.37;;;5.83;;
12363;SDS011;6246;50.826;4.712;2024-02-23T12:46:29;8.23;;;6.23;;
12363;SDS011;6246;50.826;4.712;2024-02-23T12:48:55;8.90;;;5.67;;
12363;SDS011;6246;50.826;4.712;2024-02-23T12:51:24;7.63;;;5.60;;
12363;SDS011;6246;50.826;4.712;2024-02-23T12:53:52;7.90;;;5.20;;
12363;SDS011;6246;50.826;4.712;2024-02-23T12:56:19;8.57;;;5.60;;
12363;SDS011;6246;50.826;4.712;2024-02-23T12:58:45;8.33;;;5.10;;
12363;SDS011;6246;50.826;4.712;2024-02-23T13:01:11;5.70;;;4.73;;
12363;SDS011;6246;50.826;4.712;2024-02-23T13:03:38;8.03;;;5.00;;
12363;SDS011;6246;50.826;4.712;2024-02-23T13:06:07;7.00;;;5.37;;
12363;SDS011;6246;50.826;4.712;2024-02-23T13:08:33;6.13;;;4.60;;
12363;SDS011;6246;50.826;4.712;2024-02-23T13:10:59;6.23;;;4.60;;
12363;SDS011;6246;50.826;4.712;2024-02-23T13:13:26;7.07;;;5.10;;
12363;SDS011;6246;50.826;4.712;2024-02-23T13:15:52;7.23;;;4.97;;
12363;SDS011;6246;50.826;4.712;2024-02-23T13:18:18;6.47;;;4.50;;
12363;SDS011;6246;50.826;4.712;2024-02-23T13:20:45;5.87;;;4.37;;
12363;SDS011;6246;50.826;4.712;2024-02-23T13:23:11;5.77;;;4.30;;
12363;SDS011;6246;50.826;4.712;2024-02-23T13:25:41;6.80;;;4.77;;
12363;SDS011;6246;50.826;4.712;2024-02-23T13:28:07;4.57;;;4.17;;
12363;SDS011;6246;50.826;4.712;2024-02-23T13:30:34;5.43;;;4.53;;
12363;SDS011;6246;50.826;4.712;2024-02-23T13:33:00;5.17;;;4.37;;
12363;SDS011;6246;50.826;4.712;2024-02-23T13:35:27;5.33;;;3.80;;
12363;SDS011;6246;50.826;4.712;2024-02-23T13:37:53;4.97;;;3.73;;
12363;SDS011;6246;50.826;4.712;2024-02-23T13:40:19;5.70;;;4.10;;
12363;SDS011;6246;50.826;4.712;2024-02-23T13:42:45;5.67;;;3.57;;
12363;SDS011;6246;50.826;4.712;2024-02-23T13:45:14;6.73;;;4.20;;
12363;SDS011;6246;50.826;4.712;2024-02-23T13:47:41;4.83;;;3.70;;
12363;SDS011;6246;50.826;4.712;2024-02-23T13:50:07;5.20;;;3.63;;
12363;SDS011;6246;50.826;4.712;2024-02-23T13:52:33;4.27;;;3.70;;
12363;SDS011;6246;50.826;4.712;2024-02-23T13:54:59;5.23;;;3.70;;
12363;SDS011;6246;50.826;4.712;2024-02-23T13:57:25;5.27;;;3.70;;
12363;SDS011;6246;50.826;4.712;2024-02-23T13:59:51;7.40;;;3.73;;
12363;SDS011;6246;50.826;4.712;2024-02-23T14:02:24;5.10;;;3.70;;
12363;SDS011;6246;50.826;4.712;2024-02-23T14:04:51;6.53;;;3.63;;
12363;SDS011;6246;50.826;4.712;2024-02-23T14:07:17;5.57;;;3.63;;
12363;SDS011;6246;50.826;4.712;2024-02-23T14:09:43;4.33;;;3.03;;
12363;SDS011;6246;50.826;4.712;2024-02-23T14:12:09;5.93;;;3.20;;
12363;SDS011;6246;50.826;4.712;2024-02-23T14:14:35;3.63;;;3.20;;
12363;SDS011;6246;50.826;4.712;2024-02-23T14:17:01;4.83;;;3.47;;
12363;SDS011;6246;50.826;4.712;2024-02-23T14:19:27;4.20;;;2.83;;
12363;SDS011;6246;50.826;4.712;2024-02-23T14:21:53;3.50;;;3.20;;
12363;SDS011;6246;50.826;4.712;2024-02-23T14:24:19;3.47;;;3.03;;
12363;SDS011;6246;50.826;4.712;2024-02-23T14:26:45;3.47;;;2.97;;
12363;SDS011;6246;50.826;4.712;2024-02-23T14:29:11;4.50;;;3.23;;
12363;SDS011;6246;50.826;4.712;2024-02-23T14:31:37;3.83;;;2.77;;
12363;SDS011;6246;50.826;4.712;2024-02-23T14:34:03;5.43;;;3.10;;
12363;SDS011;6246;50.826;4.712;2024-02-23T14:36:29;3.83;;;3.00;;
12363;SDS011;6246;50.826;4.712;2024-02-23T14:38:58;3.47;;;2.90;;
12363;SDS011;6246;50.826;4.712;2024-02-23T14:41:24;4.13;;;3.07;;
12363;SDS011;6246;50.826;4.712;2024-02-23T14:43:50;3.93;;;2.57;;
12363;SDS011;6246;50.826;4.712;2024-02-23T14:46:16;3.17;;;2.87;;